Latest Weather Observations for Fortescue Dave Forrest

IDW60801

Issued at 11:32 pm WST Sunday 19 April 2015 (issued every 30 minutes, with the page automatically refreshed every 10 minutes)

About weather observations | Map of weather stations | Latest weather observations for WA | Other Formats
Station Details ID: 505056 Name: FORTESCUE DAVE FORREST Lat: -22.29 Lon: 119.43 Height: 474.6 m
Data from the previous 72 hours. | See also: Recent months for locations in Western Australia
Date/Time
WST
Temp
°C
App
Temp
°C
Dew
Point
Rel
Hum
%
Delta-T
°C
Wind Press
QNH
hPa
Press
MSL
hPa
Rain
since 9 am
mm
Dir
 
Spd
km/h
Gust
km/h
Spd
kts
Gust
kts
19/11:30pm 17.1 17.4 16.1 94 0.6 SE 9 15 5 8 1020.8 1018.1 1.8
19/11:00pm 17.0 17.7 16.1 94 0.5 SE 7 11 4 6 1021.1 1018.4 1.6
19/10:30pm 17.1 18.0 16.1 94 0.6 ESE 6 11 3 6 1021.3 1018.6 1.4
19/10:00pm 17.1 17.4 15.9 93 0.7 SE 9 15 5 8 1021.3 1018.6 1.2
19/09:30pm 17.3 16.8 15.9 91 0.8 ESE 13 17 7 9 1021.3 1018.6 1.2
19/09:00pm 17.3 17.1 15.8 91 0.9 SE 11 17 6 9 1021.6 1018.9 1.2
19/08:30pm 17.4 17.3 15.9 91 0.9 SE 11 17 6 9 1021.7 1019.0 1.2
19/08:00pm 17.3 17.2 16.0 92 0.8 SE 11 17 6 9 1021.7 1019.0 1.2
19/07:30pm 17.4 17.0 16.1 92 0.8 SE 13 20 7 11 1021.6 1018.9 1.2
19/07:00pm 17.5 17.1 16.2 92 0.8 SE 13 19 7 10 1021.7 1019.0 1.2
19/06:30pm 17.5 17.9 16.4 93 0.7 SE 9 17 5 9 1021.5 1018.8 1.2
19/06:00pm 18.0 18.0 15.2 84 1.7 ESE 9 13 5 7 1021.1 1018.4 1.0
19/05:30pm 18.5 17.3 15.0 80 2.1 E 15 20 8 11 1021.0 1018.3 1.0
19/05:00pm 18.6 18.3 15.4 81 1.9 E 11 15 6 8 1020.7 1018.0 1.0
19/04:30pm 18.8 17.5 15.7 82 1.9 ESE 17 22 9 12 1020.7 1018.0 1.0
19/04:00pm 18.3 17.8 16.0 86 1.4 SE 13 19 7 10 1020.4 1017.7 0.8
19/03:30pm 17.9 17.5 16.1 89 1.1 SE 13 20 7 11 1020.2 1017.5 0.8
19/03:00pm 17.8 16.9 15.9 89 1.1 SE 15 20 8 11 1020.2 1017.5 0.6
19/02:30pm 17.6 16.3 15.7 89 1.1 SE 17 24 9 13 1020.2 1017.5 0.6
19/02:00pm 17.6 15.7 15.7 89 1.1 SE 20 30 11 16 1020.3 1017.6 0.6
19/01:30pm 17.7 15.6 15.2 85 1.5 SE 20 30 11 16 1020.5 1017.8 0.6
19/01:00pm 17.4 15.4 14.9 85 1.5 SE 19 26 10 14 1020.9 1018.2 0.6
19/12:30pm 17.8 16.4 14.4 80 2.0 SE 15 24 8 13 1021.3 1018.6 0.4
19/12:00pm 18.2 16.1 13.7 75 2.6 ESE 17 28 9 15 1021.7 1019.0 0.4
19/11:30am 19.1 16.2 12.8 67 3.6 ESE 20 28 11 15 1022.0 1019.4 0.4
19/11:00am 19.3 16.6 13.0 67 3.6 ESE 19 24 10 13 1022.2 1019.6 0.4
19/10:30am 19.0 17.1 13.0 68 3.5 E 15 22 8 12 1022.5 1019.8 0.4
19/10:00am 19.1 16.9 13.4 69 3.3 ESE 17 22 9 12 1022.0 1019.4 0.4
19/09:30am 18.4 16.3 12.4 68 3.4 ESE 15 20 8 11 1021.9 1019.3 0.2
19/09:00am 19.6 17.2 11.5 59 4.5 ESE 15 24 8 13 1021.6 1018.9 0.4
19/08:30am 20.2 16.4 9.9 51 5.7 ESE 20 28 11 15 1021.0 1018.3 0.4
19/08:00am 20.4 16.6 8.9 47 6.2 ESE 19 24 10 13 1020.6 1017.9 0.4
19/07:30am 20.2 16.0 8.3 46 6.3 ESE 20 26 11 14 1019.9 1017.3 0.4
19/07:00am 20.2 15.1 7.8 44 6.5 ESE 24 32 13 17 1019.4 1016.7 0.4
19/06:30am 20.0 14.9 7.7 45 6.5 ESE 24 32 13 17 1019.0 1016.3 0.4
19/06:00am 19.6 15.3 7.9 46 6.2 ESE 20 26 11 14 1018.6 1015.9 0.4
19/05:30am 19.1 16.0 8.7 51 5.5 ESE 15 22 8 12 1018.5 1015.8 0.4
19/05:00am 18.9 16.6 8.9 52 5.3 SE 11 20 6 11 1018.3 1015.6 0.4
19/04:30am 18.8 16.5 9.1 53 5.2 SE 11 19 6 10 1018.2 1015.5 0.4
19/04:00am 18.7 17.1 10.1 57 4.7 SE 9 13 5 7 1018.1 1015.4 0.4
19/03:30am 18.4 17.9 11.9 66 3.7 SE 6 9 3 5 1018.3 1015.6 0.4
19/03:00am 18.8 18.2 12.3 66 3.7 S 7 11 4 6 1018.5 1015.8 0.4
19/02:30am 18.6 18.1 12.8 69 3.3 SSE 7 11 4 6 1018.6 1015.9 0.4
19/02:00am 18.3 19.2 14.0 76 2.5 ESE 2 4 1 2 1019.0 1016.3 0.4
19/01:30am 18.7 19.7 14.2 75 2.6 E 2 6 1 3 1019.1 1016.4 0.4
19/01:00am 18.6 19.7 14.6 77 2.4 E 2 4 1 2 1018.9 1016.2 0.4
19/12:30am 18.9 18.8 13.9 73 2.9 E 7 9 4 5 1019.2 1016.5 0.4
19/12:00am 19.2 19.4 14.3 73 2.9 ENE 6 9 3 5 1019.4 1016.7 0.4
 
Date/Time
WST
Temp
°C
App
Temp
°C
Dew
Point
Rel
Hum
%
Delta-T
°C
Wind Press
QNH
hPa
Press
MSL
hPa
Rain
since 9 am
mm
Dir
 
Spd
km/h
Gust
km/h
Spd
kts
Gust
kts
18/11:30pm 19.2 20.7 14.6 74 2.7 CALM 0 2 0 1 1019.6 1016.9 0.2
18/11:00pm 19.3 20.1 13.8 70 3.2 NE 2 4 1 2 1019.9 1017.3 0.2
18/10:30pm 19.2 18.4 12.8 66 3.7 SSE 9 11 5 6 1019.9 1017.3 0.2
18/10:00pm 19.8 19.3 11.9 60 4.5 SE 6 9 3 5 1020.4 1017.7 0.2
18/09:30pm 19.9 20.4 12.7 63 4.1 ESE 2 4 1 2 1020.6 1017.9 0.2
18/09:00pm 19.9 19.2 11.4 58 4.8 SE 6 9 3 5 1020.6 1017.9 0.2
18/08:30pm 19.8 19.3 12.5 62 4.2 SE 7 11 4 6 1020.5 1017.8 0.2
18/08:00pm 20.2 19.0 12.7 62 4.3 ESE 11 13 6 7 1020.3 1017.6 0.2
18/07:30pm 21.2 18.6 12.0 55 5.3 ESE 17 24 9 13 1019.9 1017.3 0.2
18/07:00pm 21.3 19.5 12.1 55 5.3 SE 13 19 7 10 1019.5 1016.8 0.2
18/06:30pm 20.9 19.8 13.2 61 4.5 SE 11 17 6 9 1019.3 1016.6 0.2
18/06:00pm 20.8 20.2 13.6 63 4.2 SE 9 13 5 7 1019.1 1016.4 0.0
18/05:30pm 21.4 19.8 12.9 58 4.9 SE 13 20 7 11 1018.8 1016.1 0.0
18/05:00pm 21.6 19.7 12.9 57 5.1 SE 15 26 8 14 1018.5 1015.8 0.0
18/04:30pm 22.6 21.3 12.4 52 5.9 SE 11 22 6 12 1018.3 1015.6 0.0
18/04:00pm 23.0 19.9 11.6 48 6.5 SE 19 28 10 15 1018.1 1015.4 0.0
18/03:30pm 23.4 19.7 11.5 47 6.8 SE 22 35 12 19 1017.6 1014.9 0.0
18/03:00pm 24.3 20.0 10.8 42 7.7 SE 24 35 13 19 1017.5 1014.8 0.0
18/02:30pm 24.8 20.8 10.6 40 8.1 SE 22 33 12 18 1017.4 1014.7 0.0
18/02:00pm 24.8 21.4 10.7 41 8.0 SE 19 28 10 15 1017.5 1014.8 0.0
18/01:30pm 24.4 20.7 10.3 41 8.0 SE 20 28 11 15 1017.8 1015.1 0.0
18/01:00pm 24.4 20.9 10.2 40 8.0 SE 19 30 10 16 1018.2 1015.5 0.0
18/12:30pm 24.1 20.0 10.1 41 7.9 ESE 22 30 12 16 1018.6 1015.9 0.0
18/12:00pm 24.1 20.4 10.1 41 7.9 SE 20 26 11 14 1018.8 1016.1 0.0
18/11:30am 24.1 20.4 10.1 41 7.9 ESE 20 28 11 15 1019.1 1016.4 0.0
18/11:00am 23.6 19.1 10.0 42 7.6 ESE 24 33 13 18 1019.2 1016.5 0.0
18/10:30am 23.6 18.7 9.9 42 7.7 ESE 26 32 14 17 1019.3 1016.6 0.0
18/10:00am 22.9 19.2 10.0 44 7.2 ESE 20 26 11 14 1019.6 1016.9 0.0
18/09:30am 22.9 19.4 10.3 45 7.1 ESE 19 33 10 18 1019.7 1017.0 0.0
18/09:00am 22.1 19.6 11.2 50 6.2 SE 15 20 8 11 1019.9 1017.3 0.0
18/08:30am 21.9 19.3 11.9 53 5.7 SE 17 28 9 15 1019.3 1016.6 0.0
18/08:00am 21.7 19.3 12.8 57 5.2 SE 17 26 9 14 1018.8 1016.1 0.0
18/07:30am 21.3 18.7 13.2 60 4.7 SE 19 28 10 15 1018.5 1015.8 0.0
18/07:00am 21.0 18.4 13.3 61 4.5 SE 19 26 10 14 1018.3 1015.6 0.0
18/06:30am 20.8 19.3 13.2 61 4.4 SE 13 20 7 11 1018.0 1015.2 0.0
18/06:00am 20.8 19.3 13.2 61 4.4 SE 13 20 7 11 1017.8 1015.1 0.0
18/05:30am 20.8 19.3 13.2 61 4.4 ESE 13 19 7 10 1017.5 1014.8 0.0
18/05:00am 20.6 19.9 13.3 63 4.3 SE 9 13 5 7 1017.4 1014.7 0.0
18/04:30am 20.7 20.4 13.4 63 4.3 SE 7 13 4 7 1017.5 1014.8 0.0
18/04:00am 20.7 20.1 13.6 64 4.2 SE 9 17 5 9 1017.6 1014.9 0.0
18/03:30am 21.2 20.4 13.0 59 4.8 SSE 9 15 5 8 1017.7 1015.0 0.0
18/03:00am 21.4 20.6 12.8 58 5.0 SSE 9 13 5 7 1018.0 1015.2 0.0
18/02:30am 21.6 20.7 12.7 57 5.2 SSE 9 15 5 8 1018.0 1015.2 0.0
18/02:00am 21.7 20.0 12.6 56 5.3 SE 13 19 7 10 1017.8 1015.1 0.0
18/01:30am 21.9 20.2 12.6 55 5.4 SE 13 19 7 10 1017.8 1015.1 0.0
18/01:00am 21.9 20.2 12.6 55 5.4 SE 13 19 7 10 1018.0 1015.2 0.0
18/12:30am 22.0 20.4 12.7 55 5.4 SE 13 20 7 11 1018.2 1015.5 0.0
18/12:00am 22.2 19.8 12.7 55 5.5 SE 17 28 9 15 1018.3 1015.6 0.0
 
Date/Time
WST
Temp
°C
App
Temp
°C
Dew
Point
Rel
Hum
%
Delta-T
°C
Wind Press
QNH
hPa
Press
MSL
hPa
Rain
since 9 am
mm
Dir
 
Spd
km/h
Gust
km/h
Spd
kts
Gust
kts
17/11:30pm 22.3 19.6 12.8 55 5.5 SE 19 28 10 15 1018.5 1015.8 0.0
17/11:00pm 22.5 20.2 13.0 55 5.6 SE 17 24 9 13 1018.7 1016.0 0.0
17/10:30pm 22.8 20.6 13.2 54 5.7 SE 17 24 9 13 1018.9 1016.2 0.0
17/10:00pm 23.0 20.8 13.3 54 5.7 SE 17 22 9 12 1018.9 1016.2 0.0
17/09:30pm 23.2 21.4 13.3 53 5.9 SE 15 22 8 12 1019.0 1016.3 0.0
17/09:00pm 23.4 21.2 13.3 53 6.0 SE 17 24 9 13 1019.0 1016.3 0.0
17/08:30pm 23.7 20.9 13.3 52 6.2 SE 20 30 11 16 1018.9 1016.2 0.0
17/08:00pm 23.9 22.1 13.3 51 6.3 SE 15 26 8 14 1018.8 1016.1 0.0
17/07:30pm 24.2 22.0 13.4 51 6.4 SSE 17 26 9 14 1018.4 1015.7 0.0
17/07:00pm 24.6 22.5 13.5 50 6.6 SSE 17 26 9 14 1018.0 1015.2 0.0
17/06:30pm 25.2 22.8 13.7 49 6.9 SSE 19 30 10 16 1017.6 1014.9 0.0
17/06:00pm 25.8 23.8 13.9 47 7.2 SE 17 24 9 13 1017.1 1014.4 0.0
17/05:30pm 26.3 24.7 14.0 46 7.4 SE 15 24 8 13 1016.5 1013.8 0.0
17/05:00pm 26.8 24.5 14.1 45 7.7 SE 19 28 10 15 1016.1 1013.3 0.0
17/04:30pm 27.5 25.3 14.5 45 8.0 SE 19 28 10 15 1015.9 1013.1 0.0
17/04:00pm 27.8 26.1 14.7 44 8.1 SE 17 28 9 15 1015.8 1013.0 0.0
17/03:30pm 28.8 26.6 14.8 42 8.7 SSE 20 30 11 16 1015.8 1013.0 0.0
17/03:00pm 28.2 26.1 14.6 43 8.4 SE 19 28 10 15 1015.9 1013.1 0.0
17/02:30pm 27.9 26.2 14.8 44 8.1 SE 17 26 9 14 1016.0 1013.2 0.0
17/02:00pm 27.7 25.6 14.8 45 7.9 SE 19 32 10 17 1016.5 1013.8 0.0
17/01:30pm 28.0 26.7 14.8 44 8.1 SE 15 28 8 15 1016.6 1013.9 0.0
17/01:00pm 27.9 26.3 14.9 45 8.0 ESE 17 30 9 16 1016.9 1014.2 0.0
17/12:30pm 27.5 25.3 14.8 45 7.8 ESE 20 33 11 18 1017.4 1014.7 0.0
17/12:00pm 26.6 24.0 14.8 48 7.2 ESE 22 33 12 18 1018.1 1015.4 0.0
17/11:30am 26.1 24.0 14.8 49 6.9 ESE 19 28 10 15 1018.8 1016.1 0.0
17/11:00am 25.5 23.4 14.6 51 6.6 ESE 19 30 10 16 1019.4 1016.7 0.0
17/10:30am 25.3 23.1 14.5 51 6.6 ESE 19 32 10 17 1020.2 1017.5 0.0
17/10:00am 24.8 22.3 14.2 51 6.4 ESE 20 30 11 16 1020.3 1017.6 0.0
17/09:30am 24.0 21.7 14.2 54 5.9 ESE 19 26 10 14 1020.5 1017.8 0.0
17/09:00am 23.4 20.8 13.9 55 5.7 ESE 20 32 11 17 1020.5 1017.8 0.0
17/08:30am 22.1 19.5 13.7 59 5.0 ESE 20 30 11 16 1020.6 1017.9 0.0
17/08:00am 21.4 18.8 13.9 62 4.4 SE 20 28 11 15 1020.6 1017.9 0.0
17/07:30am 20.1 17.7 13.8 67 3.7 SE 19 30 10 16 1020.4 1017.7 0.0
17/07:00am 19.7 17.6 13.7 68 3.5 SE 17 26 9 14 1020.2 1017.5 0.0
17/06:30am 19.6 17.2 13.8 69 3.4 SE 19 28 10 15 1019.8 1017.1 0.0
17/06:00am 19.5 17.5 14.0 70 3.2 SE 17 28 9 15 1019.9 1017.3 0.0
17/05:30am 19.5 17.2 14.1 71 3.2 SE 19 28 10 15 1019.5 1016.8 0.0
17/05:00am 19.6 17.3 14.2 71 3.2 SE 19 32 10 17 1019.4 1016.7 0.0
17/04:30am 19.8 17.3 14.2 70 3.3 SE 20 30 11 16 1019.3 1016.6 0.0
17/04:00am 20.1 17.7 14.3 69 3.4 SE 20 30 11 16 1019.2 1016.5 0.0
17/03:30am 20.3 17.9 14.4 69 3.5 SE 20 32 11 17 1019.2 1016.5 0.0
17/03:00am 20.5 18.1 14.5 68 3.6 SE 20 33 11 18 1019.3 1016.6 0.0
17/02:30am 20.8 17.7 14.5 67 3.8 SE 24 37 13 20 1019.2 1016.5 0.0
17/02:00am 21.1 17.6 14.6 66 3.9 SE 26 35 14 19 1019.4 1016.7 0.0
17/01:30am 21.4 18.0 14.7 65 4.0 SE 26 37 14 20 1019.4 1016.7 0.0
17/01:00am 21.7 17.9 14.8 65 4.1 SE 28 39 15 21 1019.5 1016.8 0.0
17/12:30am 22.2 18.5 14.9 63 4.4 SE 28 44 15 24 1019.6 1016.9 0.0
17/12:00am 23.0 20.1 15.0 60 4.8 SE 24 41 13 22 1019.8 1017.1 0.0

Other Formats:

Comma delimited format used in spreadsheet applications
http://www.bom.gov.au/fwo/IDW60801/IDW60801.99736.axf

JavaScript Object Notation format (JSON) in row-major order
http://www.bom.gov.au/fwo/IDW60801/IDW60801.99736.json